sensor_id;sensor_type;location;lat;lon;timestamp;temperature;humidity
41694;DHT22;27377;50.666;9.150;2023-12-20T00:01:48;4.30;99.90
41694;DHT22;27377;50.666;9.150;2023-12-20T00:04:14;4.40;99.90
41694;DHT22;27377;50.666;9.150;2023-12-20T00:06:40;4.40;99.90
41694;DHT22;27377;50.666;9.150;2023-12-20T00:09:05;4.40;99.90
41694;DHT22;27377;50.666;9.150;2023-12-20T00:11:31;4.40;99.90
41694;DHT22;27377;50.666;9.150;2023-12-20T00:13:57;4.40;99.90
41694;DHT22;27377;50.666;9.150;2023-12-20T00:16:22;4.40;99.90
41694;DHT22;27377;50.666;9.150;2023-12-20T00:18:48;4.40;99.90
41694;DHT22;27377;50.666;9.150;2023-12-20T00:21:14;4.40;99.90
41694;DHT22;27377;50.666;9.150;2023-12-20T00:23:39;4.40;99.90
41694;DHT22;27377;50.666;9.150;2023-12-20T00:26:05;4.40;99.90
41694;DHT22;27377;50.666;9.150;2023-12-20T00:28:31;4.40;99.90
41694;DHT22;27377;50.666;9.150;2023-12-20T00:30:56;4.50;99.90
41694;DHT22;27377;50.666;9.150;2023-12-20T00:33:22;4.50;99.90
41694;DHT22;27377;50.666;9.150;2023-12-20T00:35:48;4.40;99.90
41694;DHT22;27377;50.666;9.150;2023-12-20T00:38:13;4.50;99.90
41694;DHT22;27377;50.666;9.150;2023-12-20T00:40:40;4.50;99.90
41694;DHT22;27377;50.666;9.150;2023-12-20T00:43:05;4.50;99.90
41694;DHT22;27377;50.666;9.150;2023-12-20T00:45:31;4.50;99.90
41694;DHT22;27377;50.666;9.150;2023-12-20T00:47:56;4.50;99.90
41694;DHT22;27377;50.666;9.150;2023-12-20T00:50:22;4.50;99.90
41694;DHT22;27377;50.666;9.150;2023-12-20T00:52:48;4.50;99.90
41694;DHT22;27377;50.666;9.150;2023-12-20T00:55:14;4.50;99.90
41694;DHT22;27377;50.666;9.150;2023-12-20T00:57:39;4.50;99.90
41694;DHT22;27377;50.666;9.150;2023-12-20T01:00:06;4.60;99.90
41694;DHT22;27377;50.666;9.150;2023-12-20T01:02:31;4.50;99.90
41694;DHT22;27377;50.666;9.150;2023-12-20T01:04:57;4.50;99.90
41694;DHT22;27377;50.666;9.150;2023-12-20T01:07:23;4.50;99.90
41694;DHT22;27377;50.666;9.150;2023-12-20T01:09:48;4.50;99.90
41694;DHT22;27377;50.666;9.150;2023-12-20T01:12:15;4.60;99.90
41694;DHT22;27377;50.666;9.150;2023-12-20T01:14:41;4.60;99.90
41694;DHT22;27377;50.666;9.150;2023-12-20T01:17:06;4.60;99.90
41694;DHT22;27377;50.666;9.150;2023-12-20T01:19:32;4.60;99.90
41694;DHT22;27377;50.666;9.150;2023-12-20T01:21:58;4.60;99.90
41694;DHT22;27377;50.666;9.150;2023-12-20T01:24:23;4.60;99.90
41694;DHT22;27377;50.666;9.150;2023-12-20T01:26:49;4.60;99.90
41694;DHT22;27377;50.666;9.150;2023-12-20T01:29:14;4.60;99.90
41694;DHT22;27377;50.666;9.150;2023-12-20T01:31:41;4.60;99.90
41694;DHT22;27377;50.666;9.150;2023-12-20T01:34:07;4.60;99.90
41694;DHT22;27377;50.666;9.150;2023-12-20T01:36:32;4.60;99.90
41694;DHT22;27377;50.666;9.150;2023-12-20T01:38:58;4.60;99.90
41694;DHT22;27377;50.666;9.150;2023-12-20T01:41:23;4.60;99.90
41694;DHT22;27377;50.666;9.150;2023-12-20T01:43:49;4.60;99.90
41694;DHT22;27377;50.666;9.150;2023-12-20T01:46:15;4.60;99.90
41694;DHT22;27377;50.666;9.150;2023-12-20T01:48:41;4.60;99.90
41694;DHT22;27377;50.666;9.150;2023-12-20T01:51:07;4.70;99.90
41694;DHT22;27377;50.666;9.150;2023-12-20T01:53:34;4.70;99.90
41694;DHT22;27377;50.666;9.150;2023-12-20T01:56:00;4.70;99.90
41694;DHT22;27377;50.666;9.150;2023-12-20T01:58:26;4.70;99.90
41694;DHT22;27377;50.666;9.150;2023-12-20T02:00:52;4.70;99.90
41694;DHT22;27377;50.666;9.150;2023-12-20T02:03:18;4.70;99.90
41694;DHT22;27377;50.666;9.150;2023-12-20T02:05:45;4.70;99.90
41694;DHT22;27377;50.666;9.150;2023-12-20T02:08:11;4.70;99.90
41694;DHT22;27377;50.666;9.150;2023-12-20T02:10:37;4.70;99.90
41694;DHT22;27377;50.666;9.150;2023-12-20T02:13:03;4.70;99.90
41694;DHT22;27377;50.666;9.150;2023-12-20T02:15:29;4.70;99.90
41694;DHT22;27377;50.666;9.150;2023-12-20T02:17:55;4.70;99.90
41694;DHT22;27377;50.666;9.150;2023-12-20T02:20:21;4.70;99.90
41694;DHT22;27377;50.666;9.150;2023-12-20T02:22:46;4.70;99.90
41694;DHT22;27377;50.666;9.150;2023-12-20T02:25:12;4.70;99.90
41694;DHT22;27377;50.666;9.150;2023-12-20T02:27:38;4.70;99.90
41694;DHT22;27377;50.666;9.150;2023-12-20T02:30:06;4.70;99.90
41694;DHT22;27377;50.666;9.150;2023-12-20T02:32:32;4.70;99.90
41694;DHT22;27377;50.666;9.150;2023-12-20T02:34:57;4.70;99.90
41694;DHT22;27377;50.666;9.150;2023-12-20T02:37:23;4.70;99.90
41694;DHT22;27377;50.666;9.150;2023-12-20T02:39:49;4.70;99.90
41694;DHT22;27377;50.666;9.150;2023-12-20T02:42:14;4.70;99.90
41694;DHT22;27377;50.666;9.150;2023-12-20T02:44:40;4.70;99.90
41694;DHT22;27377;50.666;9.150;2023-12-20T02:47:05;4.80;99.90
41694;DHT22;27377;50.666;9.150;2023-12-20T02:49:31;4.80;99.90
41694;DHT22;27377;50.666;9.150;2023-12-20T02:51:57;4.70;99.90
41694;DHT22;27377;50.666;9.150;2023-12-20T02:54:22;4.80;99.90
41694;DHT22;27377;50.666;9.150;2023-12-20T02:56:48;4.80;99.90
41694;DHT22;27377;50.666;9.150;2023-12-20T02:59:14;4.80;99.90
41694;DHT22;27377;50.666;9.150;2023-12-20T03:01:44;4.80;99.90
41694;DHT22;27377;50.666;9.150;2023-12-20T03:04:09;4.80;99.90
41694;DHT22;27377;50.666;9.150;2023-12-20T03:06:35;4.80;99.90
41694;DHT22;27377;50.666;9.150;2023-12-20T03:09:01;4.80;99.90
41694;DHT22;27377;50.666;9.150;2023-12-20T03:11:27;4.80;99.90
41694;DHT22;27377;50.666;9.150;2023-12-20T03:13:53;4.80;99.90
41694;DHT22;27377;50.666;9.150;2023-12-20T03:16:18;4.80;99.90
41694;DHT22;27377;50.666;9.150;2023-12-20T03:18:44;4.80;99.90
41694;DHT22;27377;50.666;9.150;2023-12-20T03:21:10;4.80;99.90
41694;DHT22;27377;50.666;9.150;2023-12-20T03:23:35;4.80;99.90
41694;DHT22;27377;50.666;9.150;2023-12-20T03:26:01;4.80;99.90
41694;DHT22;27377;50.666;9.150;2023-12-20T03:28:42;4.80;99.90
41694;DHT22;27377;50.666;9.150;2023-12-20T03:31:09;4.80;99.90
41694;DHT22;27377;50.666;9.150;2023-12-20T03:33:35;4.90;99.90
41694;DHT22;27377;50.666;9.150;2023-12-20T03:36:00;4.80;99.90
41694;DHT22;27377;50.666;9.150;2023-12-20T03:38:27;4.80;99.90
41694;DHT22;27377;50.666;9.150;2023-12-20T03:40:58;4.80;99.90
41694;DHT22;27377;50.666;9.150;2023-12-20T03:43:24;4.80;99.90
41694;DHT22;27377;50.666;9.150;2023-12-20T03:45:50;4.80;99.90
41694;DHT22;27377;50.666;9.150;2023-12-20T03:48:16;4.80;99.90
41694;DHT22;27377;50.666;9.150;2023-12-20T03:50:54;4.90;99.90
41694;DHT22;27377;50.666;9.150;2023-12-20T03:53:20;4.90;99.90
41694;DHT22;27377;50.666;9.150;2023-12-20T03:55:46;4.90;99.90
41694;DHT22;27377;50.666;9.150;2023-12-20T03:58:12;4.90;99.90
41694;DHT22;27377;50.666;9.150;2023-12-20T04:00:51;4.90;99.90
41694;DHT22;27377;50.666;9.150;2023-12-20T04:03:21;4.90;99.90
41694;DHT22;27377;50.666;9.150;2023-12-20T04:05:59;4.90;99.90
41694;DHT22;27377;50.666;9.150;2023-12-20T04:08:28;4.90;99.90
41694;DHT22;27377;50.666;9.150;2023-12-20T04:11:11;4.90;99.90
41694;DHT22;27377;50.666;9.150;2023-12-20T04:14:01;4.90;99.90
41694;DHT22;27377;50.666;9.150;2023-12-20T04:16:38;4.90;99.90
41694;DHT22;27377;50.666;9.150;2023-12-20T04:19:11;4.90;99.90
41694;DHT22;27377;50.666;9.150;2023-12-20T04:21:40;4.90;99.90
41694;DHT22;27377;50.666;9.150;2023-12-20T04:24:12;4.90;99.90
41694;DHT22;27377;50.666;9.150;2023-12-20T04:26:59;4.90;99.90
41694;DHT22;27377;50.666;9.150;2023-12-20T04:29:29;4.80;99.90
41694;DHT22;27377;50.666;9.150;2023-12-20T04:32:00;4.90;99.90
41694;DHT22;27377;50.666;9.150;2023-12-20T04:34:33;4.80;99.90
41694;DHT22;27377;50.666;9.150;2023-12-20T04:37:04;4.80;99.90
41694;DHT22;27377;50.666;9.150;2023-12-20T04:39:32;4.80;99.90
41694;DHT22;27377;50.666;9.150;2023-12-20T04:42:00;4.90;99.90
41694;DHT22;27377;50.666;9.150;2023-12-20T04:44:28;4.90;99.90
41694;DHT22;27377;50.666;9.150;2023-12-20T04:46:56;4.90;99.90
41694;DHT22;27377;50.666;9.150;2023-12-20T04:49:22;4.90;99.90
41694;DHT22;27377;50.666;9.150;2023-12-20T04:51:49;4.90;99.90
41694;DHT22;27377;50.666;9.150;2023-12-20T04:54:18;4.80;99.90
41694;DHT22;27377;50.666;9.150;2023-12-20T04:56:45;4.90;99.90
41694;DHT22;27377;50.666;9.150;2023-12-20T04:59:14;4.90;99.90
41694;DHT22;27377;50.666;9.150;2023-12-20T05:01:40;4.80;99.90
41694;DHT22;27377;50.666;9.150;2023-12-20T05:04:07;4.80;99.90
41694;DHT22;27377;50.666;9.150;2023-12-20T05:06:32;4.80;99.90
41694;DHT22;27377;50.666;9.150;2023-12-20T05:09:04;4.80;99.90
41694;DHT22;27377;50.666;9.150;2023-12-20T05:11:43;4.70;99.90
41694;DHT22;27377;50.666;9.150;2023-12-20T05:14:15;4.70;99.90
41694;DHT22;27377;50.666;9.150;2023-12-20T05:16:43;4.70;99.90
41694;DHT22;27377;50.666;9.150;2023-12-20T05:19:09;4.70;99.90
41694;DHT22;27377;50.666;9.150;2023-12-20T05:21:35;4.70;99.90
41694;DHT22;27377;50.666;9.150;2023-12-20T05:24:04;4.70;99.90
41694;DHT22;27377;50.666;9.150;2023-12-20T05:26:30;4.70;99.90
41694;DHT22;27377;50.666;9.150;2023-12-20T05:29:05;4.70;99.90
41694;DHT22;27377;50.666;9.150;2023-12-20T05:31:31;4.70;99.90
41694;DHT22;27377;50.666;9.150;2023-12-20T05:33:58;4.70;99.90
41694;DHT22;27377;50.666;9.150;2023-12-20T05:36:23;4.70;99.90
41694;DHT22;27377;50.666;9.150;2023-12-20T05:38:49;4.70;99.90
41694;DHT22;27377;50.666;9.150;2023-12-20T05:41:19;4.70;99.90
41694;DHT22;27377;50.666;9.150;2023-12-20T05:43:48;4.70;99.90
41694;DHT22;27377;50.666;9.150;2023-12-20T05:46:20;4.70;99.90
41694;DHT22;27377;50.666;9.150;2023-12-20T05:48:47;4.70;99.90
41694;DHT22;27377;50.666;9.150;2023-12-20T05:51:14;4.70;99.90
41694;DHT22;27377;50.666;9.150;2023-12-20T05:53:53;4.70;99.90
41694;DHT22;27377;50.666;9.150;2023-12-20T05:56:18;4.70;99.90
41694;DHT22;27377;50.666;9.150;2023-12-20T05:58:46;4.70;99.90
41694;DHT22;27377;50.666;9.150;2023-12-20T06:01:16;4.70;99.90
41694;DHT22;27377;50.666;9.150;2023-12-20T06:03:44;4.70;99.90
41694;DHT22;27377;50.666;9.150;2023-12-20T06:06:24;4.70;99.90
41694;DHT22;27377;50.666;9.150;2023-12-20T06:08:54;4.70;99.90
41694;DHT22;27377;50.666;9.150;2023-12-20T06:12:00;4.60;99.90
41694;DHT22;27377;50.666;9.150;2023-12-20T06:38:54;4.60;99.90
41694;DHT22;27377;50.666;9.150;2023-12-20T06:41:23;4.70;99.90
41694;DHT22;27377;50.666;9.150;2023-12-20T06:43:50;4.70;99.90
41694;DHT22;27377;50.666;9.150;2023-12-20T06:46:24;4.60;99.90
41694;DHT22;27377;50.666;9.150;2023-12-20T06:48:54;4.60;99.90
41694;DHT22;27377;50.666;9.150;2023-12-20T06:51:21;4.60;99.90
41694;DHT22;27377;50.666;9.150;2023-12-20T06:53:54;4.60;99.90
41694;DHT22;27377;50.666;9.150;2023-12-20T06:56:20;4.60;99.90
41694;DHT22;27377;50.666;9.150;2023-12-20T06:58:52;4.60;99.90
41694;DHT22;27377;50.666;9.150;2023-12-20T07:01:27;4.50;99.90
41694;DHT22;27377;50.666;9.150;2023-12-20T07:03:52;4.50;99.90
41694;DHT22;27377;50.666;9.150;2023-12-20T07:06:20;4.50;99.90
41694;DHT22;27377;50.666;9.150;2023-12-20T07:08:47;4.50;99.90
41694;DHT22;27377;50.666;9.150;2023-12-20T07:11:15;4.50;99.90
41694;DHT22;27377;50.666;9.150;2023-12-20T07:16:33;4.50;99.90
41694;DHT22;27377;50.666;9.150;2023-12-20T07:21:37;4.50;99.90
41694;DHT22;27377;50.666;9.150;2023-12-20T07:24:21;4.50;99.90
41694;DHT22;27377;50.666;9.150;2023-12-20T07:26:53;4.50;99.90
41694;DHT22;27377;50.666;9.150;2023-12-20T07:29:24;4.50;99.90
41694;DHT22;27377;50.666;9.150;2023-12-20T07:31:50;4.50;99.90
41694;DHT22;27377;50.666;9.150;2023-12-20T07:34:35;4.50;99.90
41694;DHT22;27377;50.666;9.150;2023-12-20T07:37:01;4.40;99.90
41694;DHT22;27377;50.666;9.150;2023-12-20T07:39:27;4.40;99.90
41694;DHT22;27377;50.666;9.150;2023-12-20T07:41:59;4.50;99.90
41694;DHT22;27377;50.666;9.150;2023-12-20T07:44:45;4.50;99.90
41694;DHT22;27377;50.666;9.150;2023-12-20T07:47:11;4.50;99.90
41694;DHT22;27377;50.666;9.150;2023-12-20T07:49:43;4.40;99.90
41694;DHT22;27377;50.666;9.150;2023-12-20T07:52:09;4.50;99.90
41694;DHT22;27377;50.666;9.150;2023-12-20T07:57:10;4.40;99.90
41694;DHT22;27377;50.666;9.150;2023-12-20T08:03:39;4.50;99.90
41694;DHT22;27377;50.666;9.150;2023-12-20T08:06:05;4.50;99.90
41694;DHT22;27377;50.666;9.150;2023-12-20T08:08:35;4.50;99.90
41694;DHT22;27377;50.666;9.150;2023-12-20T08:11:12;4.40;99.90
41694;DHT22;27377;50.666;9.150;2023-12-20T08:13:38;4.40;99.90
41694;DHT22;27377;50.666;9.150;2023-12-20T08:19:00;4.50;99.90
41694;DHT22;27377;50.666;9.150;2023-12-20T08:21:28;4.50;99.90
41694;DHT22;27377;50.666;9.150;2023-12-20T08:23:57;4.50;99.90
41694;DHT22;27377;50.666;9.150;2023-12-20T08:26:30;4.50;99.90
41694;DHT22;27377;50.666;9.150;2023-12-20T08:28:59;4.50;99.90
41694;DHT22;27377;50.666;9.150;2023-12-20T08:31:26;4.50;99.90
41694;DHT22;27377;50.666;9.150;2023-12-20T08:34:00;4.50;99.90
41694;DHT22;27377;50.666;9.150;2023-12-20T08:36:32;4.50;99.90
41694;DHT22;27377;50.666;9.150;2023-12-20T08:39:02;4.50;99.90
41694;DHT22;27377;50.666;9.150;2023-12-20T08:41:44;4.60;99.90
41694;DHT22;27377;50.666;9.150;2023-12-20T08:44:13;4.50;99.90
41694;DHT22;27377;50.666;9.150;2023-12-20T08:46:55;4.50;99.90
41694;DHT22;27377;50.666;9.150;2023-12-20T08:49:40;4.50;99.90
41694;DHT22;27377;50.666;9.150;2023-12-20T08:52:15;4.60;99.90
41694;DHT22;27377;50.666;9.150;2023-12-20T09:13:19;4.60;99.90
41694;DHT22;27377;50.666;9.150;2023-12-20T09:22:49;4.60;99.90
41694;DHT22;27377;50.666;9.150;2023-12-20T09:25:20;4.60;99.90
41694;DHT22;27377;50.666;9.150;2023-12-20T09:33:50;4.70;99.90
41694;DHT22;27377;50.666;9.150;2023-12-20T09:36:16;4.70;99.90
41694;DHT22;27377;50.666;9.150;2023-12-20T09:38:42;4.70;99.90
41694;DHT22;27377;50.666;9.150;2023-12-20T09:41:08;4.70;99.90
41694;DHT22;27377;50.666;9.150;2023-12-20T09:43:37;4.70;99.90
41694;DHT22;27377;50.666;9.150;2023-12-20T09:48:39;4.70;99.90
41694;DHT22;27377;50.666;9.150;2023-12-20T09:51:08;4.70;99.90
41694;DHT22;27377;50.666;9.150;2023-12-20T09:56:09;4.70;99.90
41694;DHT22;27377;50.666;9.150;2023-12-20T09:59:10;4.70;99.90
41694;DHT22;27377;50.666;9.150;2023-12-20T10:08:24;4.70;99.90
41694;DHT22;27377;50.666;9.150;2023-12-20T10:10:50;4.80;99.90
41694;DHT22;27377;50.666;9.150;2023-12-20T10:13:16;4.70;99.90
41694;DHT22;27377;50.666;9.150;2023-12-20T10:15:42;4.80;99.90
41694;DHT22;27377;50.666;9.150;2023-12-20T10:18:08;4.80;99.90
41694;DHT22;27377;50.666;9.150;2023-12-20T10:20:34;4.80;99.90
41694;DHT22;27377;50.666;9.150;2023-12-20T10:23:01;4.80;99.90
41694;DHT22;27377;50.666;9.150;2023-12-20T10:25:27;4.80;99.90
41694;DHT22;27377;50.666;9.150;2023-12-20T10:28:15;4.80;99.90
41694;DHT22;27377;50.666;9.150;2023-12-20T10:30:54;4.80;99.90
41694;DHT22;27377;50.666;9.150;2023-12-20T10:33:30;4.90;99.90
41694;DHT22;27377;50.666;9.150;2023-12-20T10:36:15;4.80;99.90
41694;DHT22;27377;50.666;9.150;2023-12-20T10:44:35;4.90;99.90
41694;DHT22;27377;50.666;9.150;2023-12-20T10:47:01;4.90;99.90
41694;DHT22;27377;50.666;9.150;2023-12-20T11:52:04;5.10;99.90
41694;DHT22;27377;50.666;9.150;2023-12-20T11:54:31;5.10;99.90
41694;DHT22;27377;50.666;9.150;2023-12-20T11:56:58;5.10;99.90
41694;DHT22;27377;50.666;9.150;2023-12-20T11:59:24;5.10;99.90
41694;DHT22;27377;50.666;9.150;2023-12-20T12:01:51;5.10;99.90
41694;DHT22;27377;50.666;9.150;2023-12-20T12:04:17;5.10;99.90
41694;DHT22;27377;50.666;9.150;2023-12-20T12:06:44;5.10;99.90
41694;DHT22;27377;50.666;9.150;2023-12-20T12:09:13;5.10;99.90
41694;DHT22;27377;50.666;9.150;2023-12-20T12:11:41;5.10;99.90
41694;DHT22;27377;50.666;9.150;2023-12-20T12:14:10;5.10;99.90
41694;DHT22;27377;50.666;9.150;2023-12-20T12:16:36;5.10;99.90
41694;DHT22;27377;50.666;9.150;2023-12-20T12:19:02;5.20;99.90
41694;DHT22;27377;50.666;9.150;2023-12-20T12:21:30;5.20;99.90
41694;DHT22;27377;50.666;9.150;2023-12-20T12:24:10;5.20;99.90
41694;DHT22;27377;50.666;9.150;2023-12-20T12:26:39;5.20;99.90
41694;DHT22;27377;50.666;9.150;2023-12-20T12:29:07;5.20;99.90
41694;DHT22;27377;50.666;9.150;2023-12-20T12:31:36;5.20;99.90
41694;DHT22;27377;50.666;9.150;2023-12-20T12:34:02;5.20;99.90
41694;DHT22;27377;50.666;9.150;2023-12-20T12:36:28;5.20;99.90
41694;DHT22;27377;50.666;9.150;2023-12-20T12:38:57;5.20;99.90
41694;DHT22;27377;50.666;9.150;2023-12-20T12:41:23;5.20;99.90
41694;DHT22;27377;50.666;9.150;2023-12-20T12:43:49;5.20;99.90
41694;DHT22;27377;50.666;9.150;2023-12-20T12:46:15;5.20;99.90
41694;DHT22;27377;50.666;9.150;2023-12-20T12:48:41;5.20;99.90
41694;DHT22;27377;50.666;9.150;2023-12-20T12:51:07;5.20;99.90
41694;DHT22;27377;50.666;9.150;2023-12-20T12:53:37;5.20;99.90
41694;DHT22;27377;50.666;9.150;2023-12-20T12:56:04;5.20;99.90
41694;DHT22;27377;50.666;9.150;2023-12-20T12:58:29;5.20;99.90
41694;DHT22;27377;50.666;9.150;2023-12-20T13:00:55;5.20;99.90
41694;DHT22;27377;50.666;9.150;2023-12-20T13:03:22;5.20;99.90
41694;DHT22;27377;50.666;9.150;2023-12-20T13:05:47;5.30;99.90
41694;DHT22;27377;50.666;9.150;2023-12-20T13:08:14;5.20;99.90
41694;DHT22;27377;50.666;9.150;2023-12-20T13:10:40;5.20;99.90
41694;DHT22;27377;50.666;9.150;2023-12-20T13:13:06;5.20;99.90
41694;DHT22;27377;50.666;9.150;2023-12-20T13:15:32;5.20;99.90
41694;DHT22;27377;50.666;9.150;2023-12-20T13:17:57;5.20;99.90
41694;DHT22;27377;50.666;9.150;2023-12-20T13:20:23;5.20;99.90
41694;DHT22;27377;50.666;9.150;2023-12-20T13:22:49;5.20;99.90
41694;DHT22;27377;50.666;9.150;2023-12-20T13:25:15;5.20;99.90
41694;DHT22;27377;50.666;9.150;2023-12-20T13:27:41;5.30;99.90
41694;DHT22;27377;50.666;9.150;2023-12-20T13:30:07;5.20;99.90
41694;DHT22;27377;50.666;9.150;2023-12-20T13:32:33;5.30;99.90
41694;DHT22;27377;50.666;9.150;2023-12-20T13:35:00;5.30;99.90
41694;DHT22;27377;50.666;9.150;2023-12-20T13:37:25;5.20;99.90
41694;DHT22;27377;50.666;9.150;2023-12-20T13:39:51;5.30;99.90
41694;DHT22;27377;50.666;9.150;2023-12-20T13:42:16;5.20;99.90
41694;DHT22;27377;50.666;9.150;2023-12-20T13:44:42;5.20;99.90
41694;DHT22;27377;50.666;9.150;2023-12-20T13:47:08;5.20;99.90
41694;DHT22;27377;50.666;9.150;2023-12-20T13:49:36;5.20;99.90
41694;DHT22;27377;50.666;9.150;2023-12-20T13:52:03;5.20;99.90
41694;DHT22;27377;50.666;9.150;2023-12-20T13:54:29;5.20;99.90
41694;DHT22;27377;50.666;9.150;2023-12-20T13:56:55;5.20;99.90
41694;DHT22;27377;50.666;9.150;2023-12-20T13:59:23;5.20;99.90
41694;DHT22;27377;50.666;9.150;2023-12-20T14:01:51;5.20;99.90
41694;DHT22;27377;50.666;9.150;2023-12-20T14:04:17;5.20;99.90
41694;DHT22;27377;50.666;9.150;2023-12-20T14:06:43;5.20;99.90
41694;DHT22;27377;50.666;9.150;2023-12-20T14:09:14;5.30;99.90
41694;DHT22;27377;50.666;9.150;2023-12-20T14:11:43;5.20;99.90
41694;DHT22;27377;50.666;9.150;2023-12-20T14:14:08;5.30;99.90
41694;DHT22;27377;50.666;9.150;2023-12-20T14:16:35;5.30;99.90
41694;DHT22;27377;50.666;9.150;2023-12-20T14:19:01;5.20;99.90
41694;DHT22;27377;50.666;9.150;2023-12-20T14:21:29;5.20;99.90
41694;DHT22;27377;50.666;9.150;2023-12-20T14:24:05;5.20;99.90
41694;DHT22;27377;50.666;9.150;2023-12-20T14:26:31;5.20;99.90
41694;DHT22;27377;50.666;9.150;2023-12-20T14:28:57;5.30;99.90
41694;DHT22;27377;50.666;9.150;2023-12-20T14:31:26;5.20;99.90
41694;DHT22;27377;50.666;9.150;2023-12-20T14:33:52;5.30;99.90
41694;DHT22;27377;50.666;9.150;2023-12-20T14:36:19;5.20;99.90
41694;DHT22;27377;50.666;9.150;2023-12-20T14:38:45;5.20;99.90
41694;DHT22;27377;50.666;9.150;2023-12-20T14:41:12;5.30;99.90
41694;DHT22;27377;50.666;9.150;2023-12-20T14:43:39;5.30;99.90
41694;DHT22;27377;50.666;9.150;2023-12-20T14:46:07;5.20;99.90
41694;DHT22;27377;50.666;9.150;2023-12-20T14:48:32;5.20;99.90
41694;DHT22;27377;50.666;9.150;2023-12-20T14:50:58;5.20;99.90
41694;DHT22;27377;50.666;9.150;2023-12-20T14:53:25;5.20;99.90
41694;DHT22;27377;50.666;9.150;2023-12-20T14:55:53;5.20;99.90
41694;DHT22;27377;50.666;9.150;2023-12-20T14:58:19;5.30;99.90
41694;DHT22;27377;50.666;9.150;2023-12-20T15:00:44;5.20;99.90
41694;DHT22;27377;50.666;9.150;2023-12-20T15:03:10;5.20;99.90
41694;DHT22;27377;50.666;9.150;2023-12-20T15:05:36;5.20;99.90
41694;DHT22;27377;50.666;9.150;2023-12-20T15:08:03;5.20;99.90
41694;DHT22;27377;50.666;9.150;2023-12-20T15:10:32;5.20;99.90
41694;DHT22;27377;50.666;9.150;2023-12-20T15:13:02;5.20;99.90
41694;DHT22;27377;50.666;9.150;2023-12-20T15:15:30;5.20;99.90
41694;DHT22;27377;50.666;9.150;2023-12-20T15:18:01;5.20;99.90
41694;DHT22;27377;50.666;9.150;2023-12-20T15:20:29;5.30;99.90
41694;DHT22;27377;50.666;9.150;2023-12-20T15:22:55;5.30;99.90
41694;DHT22;27377;50.666;9.150;2023-12-20T15:25:20;5.30;99.90
41694;DHT22;27377;50.666;9.150;2023-12-20T15:27:50;5.30;99.90
41694;DHT22;27377;50.666;9.150;2023-12-20T15:30:20;5.30;99.90
41694;DHT22;27377;50.666;9.150;2023-12-20T15:32:46;5.30;99.90
41694;DHT22;27377;50.666;9.150;2023-12-20T15:35:11;5.30;99.90
41694;DHT22;27377;50.666;9.150;2023-12-20T15:37:41;5.30;99.90
41694;DHT22;27377;50.666;9.150;2023-12-20T15:40:10;5.30;99.90
41694;DHT22;27377;50.666;9.150;2023-12-20T15:42:39;5.30;99.90
41694;DHT22;27377;50.666;9.150;2023-12-20T15:45:06;5.30;99.90
41694;DHT22;27377;50.666;9.150;2023-12-20T15:47:34;5.30;99.90
41694;DHT22;27377;50.666;9.150;2023-12-20T15:50:04;5.30;99.90
41694;DHT22;27377;50.666;9.150;2023-12-20T15:52:34;5.30;99.90
41694;DHT22;27377;50.666;9.150;2023-12-20T15:55:02;5.30;99.90
41694;DHT22;27377;50.666;9.150;2023-12-20T15:57:28;5.30;99.90
41694;DHT22;27377;50.666;9.150;2023-12-20T15:59:57;5.40;99.90
41694;DHT22;27377;50.666;9.150;2023-12-20T16:02:24;5.40;99.90
41694;DHT22;27377;50.666;9.150;2023-12-20T16:04:50;5.40;99.90
41694;DHT22;27377;50.666;9.150;2023-12-20T16:07:15;5.40;99.90
41694;DHT22;27377;50.666;9.150;2023-12-20T16:09:45;5.40;99.90
41694;DHT22;27377;50.666;9.150;2023-12-20T16:12:10;5.40;99.90
41694;DHT22;27377;50.666;9.150;2023-12-20T16:14:36;5.40;99.90
41694;DHT22;27377;50.666;9.150;2023-12-20T16:17:04;5.40;99.90
41694;DHT22;27377;50.666;9.150;2023-12-20T16:19:31;5.40;99.90
41694;DHT22;27377;50.666;9.150;2023-12-20T16:21:59;5.40;99.90
41694;DHT22;27377;50.666;9.150;2023-12-20T16:24:25;5.40;99.90
41694;DHT22;27377;50.666;9.150;2023-12-20T16:26:50;5.50;99.90
41694;DHT22;27377;50.666;9.150;2023-12-20T16:29:18;5.40;99.90
41694;DHT22;27377;50.666;9.150;2023-12-20T16:31:44;5.50;99.90
41694;DHT22;27377;50.666;9.150;2023-12-20T16:34:11;5.40;99.90
41694;DHT22;27377;50.666;9.150;2023-12-20T16:36:53;5.40;99.90
41694;DHT22;27377;50.666;9.150;2023-12-20T16:39:21;5.40;99.90
41694;DHT22;27377;50.666;9.150;2023-12-20T16:41:51;5.50;99.90
41694;DHT22;27377;50.666;9.150;2023-12-20T16:44:19;5.40;99.90
41694;DHT22;27377;50.666;9.150;2023-12-20T16:46:49;5.50;99.90
41694;DHT22;27377;50.666;9.150;2023-12-20T16:49:22;5.50;99.90
41694;DHT22;27377;50.666;9.150;2023-12-20T16:51:48;5.50;99.90
41694;DHT22;27377;50.666;9.150;2023-12-20T16:54:16;5.40;99.90
41694;DHT22;27377;50.666;9.150;2023-12-20T16:56:42;5.40;99.90
41694;DHT22;27377;50.666;9.150;2023-12-20T16:59:10;5.50;99.90
41694;DHT22;27377;50.666;9.150;2023-12-20T17:01:39;5.40;99.90
41694;DHT22;27377;50.666;9.150;2023-12-20T17:04:13;5.40;99.90
41694;DHT22;27377;50.666;9.150;2023-12-20T17:06:39;5.50;99.90
41694;DHT22;27377;50.666;9.150;2023-12-20T17:09:06;5.40;99.90
41694;DHT22;27377;50.666;9.150;2023-12-20T17:11:37;5.50;99.90
41694;DHT22;27377;50.666;9.150;2023-12-20T17:14:06;5.50;99.90
41694;DHT22;27377;50.666;9.150;2023-12-20T17:16:32;5.50;99.90
41694;DHT22;27377;50.666;9.150;2023-12-20T17:19:05;5.40;99.90
41694;DHT22;27377;50.666;9.150;2023-12-20T17:21:31;5.40;99.90
41694;DHT22;27377;50.666;9.150;2023-12-20T17:23:57;5.40;99.90
41694;DHT22;27377;50.666;9.150;2023-12-20T17:26:22;5.50;99.90
41694;DHT22;27377;50.666;9.150;2023-12-20T17:28:48;5.50;99.90
41694;DHT22;27377;50.666;9.150;2023-12-20T17:31:14;5.50;99.90
41694;DHT22;27377;50.666;9.150;2023-12-20T17:33:40;5.40;99.90
41694;DHT22;27377;50.666;9.150;2023-12-20T17:36:06;5.50;99.90
41694;DHT22;27377;50.666;9.150;2023-12-20T17:38:32;5.50;99.90
41694;DHT22;27377;50.666;9.150;2023-12-20T17:41:02;5.50;99.90
41694;DHT22;27377;50.666;9.150;2023-12-20T17:43:28;5.50;99.90
41694;DHT22;27377;50.666;9.150;2023-12-20T17:45:55;5.50;99.90
41694;DHT22;27377;50.666;9.150;2023-12-20T17:48:21;5.50;99.90
41694;DHT22;27377;50.666;9.150;2023-12-20T17:50:53;5.50;99.90
41694;DHT22;27377;50.666;9.150;2023-12-20T17:53:18;5.50;99.90
41694;DHT22;27377;50.666;9.150;2023-12-20T17:55:46;5.50;99.90
41694;DHT22;27377;50.666;9.150;2023-12-20T17:58:14;5.50;99.90
41694;DHT22;27377;50.666;9.150;2023-12-20T18:00:40;5.50;99.90
41694;DHT22;27377;50.666;9.150;2023-12-20T18:03:08;5.50;99.90
41694;DHT22;27377;50.666;9.150;2023-12-20T18:05:34;5.50;99.90
41694;DHT22;27377;50.666;9.150;2023-12-20T18:08:03;5.50;99.90
41694;DHT22;27377;50.666;9.150;2023-12-20T18:10:29;5.50;99.90
41694;DHT22;27377;50.666;9.150;2023-12-20T18:12:55;5.50;99.90
41694;DHT22;27377;50.666;9.150;2023-12-20T18:15:21;5.50;99.90
41694;DHT22;27377;50.666;9.150;2023-12-20T18:17:47;5.50;99.90
41694;DHT22;27377;50.666;9.150;2023-12-20T18:20:13;5.50;99.90
41694;DHT22;27377;50.666;9.150;2023-12-20T18:22:41;5.50;99.90